Details From RJFR - NEW KITAKYUSHU
To RJFT - KUMAMOTO
Flight Number -
Tags generated
Created
Modified
Stats Distance 62 nm / 114 km
Max Altitude 700 ft / 213 m
Waypoints 3
Social Downloads 0
Likes 0
Share VATSIM

Download

Looking for another format? Having issues loading an existing format? Contact us
Advertisement - Login to hide

Notes

Basic altitude profile: - Ascent Rate: 2500ft/min - Ascent Speed: 250kts - Cruise Altitude: 35000ft - Cruise Speed: 420kts - Descent Rate: 1500ft/min - Descent Speed: 250kts Options: - Use NATs: yes - Use PACOTS: yes - Use low airways: yes - Use high airways: yes

Route

RJFR KANDA RJFT

ID Type Via Altitude Latitude Longitude Leg Dist Tot Dist Heading (true) Name
O RJFR APT - 0 ft / 0 m 33.84594˚ 131.03469˚ - 0 nm - NEW KITAKYUSHU
KANDA FIX - 700 ft / 213 m 33.81856˚ 131.00817˚ 2 nm 2 nm 219° / 219° -
O RJFT APT - 0 ft / 0 m 32.83732˚ 130.85505˚ 59 nm 61 nm 187° / 187° KUMAMOTO

Altitude Profile

Advertisement - Login to hide

RJFR

Details ICAO RJFR (KKJ)
Name NEW KITAKYUSHU
Region Japan
Timezone Asia/Tokyo (UTC+9.0)
Stats Elevation 21 ft / 6 m (AMSL)
Location 33.845940° 131.034689°
Runways 1
Magnetic Variation 7.534° W

METAR

RJFR 111702Z 28017G27KT 9999 -SHSNRA FEW010 BKN020 BKN025 03/M04 Q1021 RMK 2CU010 5CU020 6CU025 A3018

Decode

TAF

TAF AMD TAF AMD RJFR 111241Z 1112/1218 28022G35KT 8000 -SHSNRA FEW010 SCT020 BKN035 TEMPO 1112/1114 29035G45KT TEMPO 1117/1121 2000 -SHSNRA BECMG 1209/1212 29011KT

Decode

Departure Runways

ID Width Length Bearing (true) Bearing (mag) Surface Threshold Offset Overrun Length
18 260 ft / 79 m 8,625 ft / 2,629 m 170.36° 177.89° Asphalt 0 ft / 0 m 0 ft / 0 m
36 260 ft / 79 m 8,625 ft / 2,629 m 350.36° 357.89° Asphalt 0 ft / 0 m 0 ft / 0 m

RJFT

Details ICAO RJFT (KMJ)
Name KUMAMOTO
Region Japan
Timezone Asia/Tokyo (UTC+9.0)
Stats Elevation 642 ft / 196 m (AMSL)
Location 32.837318° 130.855052°
Runways 1
Magnetic Variation 7.225° W

METAR

Not found

TAF

TAF RJFT 111109Z 1112/1218 31007KT 9999 FEW015 SCT030

Decode

Destination Runways

ID Width Length Bearing (true) Bearing (mag) Surface Threshold Offset Overrun Length
07 150 ft / 46 m 9,833 ft / 2,997 m 64.47° 71.69° Asphalt 0 ft / 0 m 200 ft / 61 m
25 150 ft / 46 m 9,833 ft / 2,997 m 244.49° 251.71° Asphalt 0 ft / 0 m 200 ft / 61 m

Approach Navaids

Runway Type Ident Frequency Range Bearing (true) Bearing (mag) Slope Elevation
07 Localiser IKU 109.30 MHz 18 nm / 33 km 64.49° 71.71° - 642 ft / 196 m (AMSL)
07 Glidescope IKU 109.30 MHz 10 nm / 19 km 64.48° 71.71° 3.00° 651 ft / 198 m (AMSL)